Hauptseite
METAR-TAF:

METAR-TAF

Flughäfen :

Flughafen Sunan

Pjöngjang, Nordkorea

Breite: 39-02N, Länge: 125-47E, Höhe: 36 m

METAR: fehlend

Zeit: 22:04 (13:04 UTC)

Prognose

Neuester Wetterbericht von vor 9 Stunden und 14 Minuten, um 03:50 UTC
Gültige Prognose vom 21 um 06 UTC bis 22 um 06 UTC
Wind 6 kt aus West
Sichtweite: 4000 m
Durchbrochene Bewölkung in der Höhe von 2000 ft
feuchter Dunst,

TAF: ZKPY 210350Z 2106/2206 26003MPS 4000 BR BKN020 TX26/2106Z TN15/2121Z

Wetterbeobachtungen und Prognosen von mehr als 4000 Flughäfen (METAR und TAF Bericht).

Die verfügbaren Stationen werden durch gelbe und rote Markierungen auf der Karte dargestellt.

Führen Sie die Maus auf sie, um den Namen der Station zu sehen.

Darauf klicken, um die Beobachtung von Wetterbeobachtungen und Prognosen zu sehen.

Um die Karte zu ändern : klicken Sie auf den grünen Tasten mit einem schwarzen Kreuz Zum Vergrößern, auf den grünen Button mit einem Gedankenstrich zu verkleinern, oder auf die grünen Pfeile für benachbarte Karten.


METAR-TAF: